createdAt,value
2022-09-05T00:01:27.845Z,21.87
2022-09-05T00:04:10.543Z,21.78
2022-09-05T00:06:55.688Z,21.72
2022-09-05T00:09:40.837Z,21.73
2022-09-05T00:12:10.547Z,21.70
2022-09-05T00:15:17.392Z,21.69
2022-09-05T00:18:20.313Z,21.66
2022-09-05T00:24:25.691Z,21.65
2022-09-05T00:24:36.938Z,21.58
2022-09-05T00:26:25.861Z,21.56
2022-09-05T00:29:00.286Z,21.53
2022-09-05T00:31:54.174Z,21.48
2022-09-05T00:34:47.359Z,21.41
2022-09-05T00:37:32.146Z,21.40
2022-09-05T00:40:18.687Z,21.40
2022-09-05T00:42:50.452Z,21.40
2022-09-05T00:45:25.259Z,21.35
2022-09-05T00:47:57.383Z,21.30
2022-09-05T00:50:30.875Z,21.24
2022-09-05T00:53:06.662Z,21.21
2022-09-05T00:55:40.584Z,21.20
2022-09-05T00:58:34.048Z,21.15
2022-09-05T01:01:03.761Z,21.10
2022-09-05T01:03:56.262Z,21.07
2022-09-05T01:06:36.414Z,21.06
2022-09-05T01:09:18.309Z,21.05
2022-09-05T01:11:53.572Z,21.03
2022-09-05T01:14:30.340Z,21.04
2022-09-05T01:17:17.809Z,20.97
2022-09-05T01:20:19.359Z,20.89
2022-09-05T01:23:00.541Z,20.90
2022-09-05T01:25:44.107Z,20.89
2022-09-05T01:29:17.314Z,20.87
2022-09-05T01:31:17.202Z,20.86
2022-09-05T01:33:50.105Z,20.83
2022-09-05T01:36:52.211Z,20.81
2022-09-05T01:40:11.750Z,20.73
2022-09-05T01:42:21.477Z,20.65
2022-09-05T01:44:57.909Z,20.59
2022-09-05T01:47:43.929Z,20.58
2022-09-05T01:50:26.756Z,20.58
2022-09-05T01:53:11.480Z,20.63
2022-09-05T01:56:04.820Z,20.60
2022-09-05T01:58:46.877Z,20.54
2022-09-05T02:01:31.712Z,20.54
2022-09-05T02:04:26.643Z,20.53
2022-09-05T02:07:19.234Z,20.48
2022-09-05T02:10:07.129Z,20.52
2022-09-05T02:12:37.869Z,20.48
2022-09-05T02:15:09.473Z,20.45
2022-09-05T02:17:51.804Z,20.43
2022-09-05T02:20:24.273Z,20.40
2022-09-05T02:23:00.543Z,20.33
2022-09-05T02:26:01.216Z,20.31
2022-09-05T02:28:24.145Z,20.34
2022-09-05T02:31:09.072Z,20.31
2022-09-05T02:34:00.138Z,20.35
2022-09-05T02:36:35.197Z,20.31
2022-09-05T02:45:01.822Z,20.29
2022-09-05T02:45:05.999Z,20.22
2022-09-05T02:45:18.802Z,20.25
2022-09-05T02:47:46.850Z,20.19
2022-09-05T02:55:28.967Z,20.19
2022-09-05T02:57:30.282Z,20.12
2022-09-05T02:57:37.964Z,20.11
2022-09-05T02:59:13.830Z,20.08
2022-09-05T03:01:55.103Z,20.08
2022-09-05T03:04:30.032Z,20.06
2022-09-05T03:07:19.929Z,19.99
2022-09-05T03:09:59.261Z,20.02
2022-09-05T03:12:58.088Z,19.99
2022-09-05T03:16:06.465Z,19.93
2022-09-05T03:19:09.449Z,19.83
2022-09-05T03:22:09.572Z,19.61
2022-09-05T03:25:17.535Z,19.71
2022-09-05T03:28:21.995Z,19.61
2022-09-05T03:31:02.453Z,19.34
2022-09-05T03:33:46.566Z,19.04
2022-09-05T03:36:31.257Z,19.23
2022-09-05T03:39:31.055Z,19.27
2022-09-05T03:42:19.091Z,19.12
2022-09-05T03:45:08.204Z,19.31
2022-09-05T03:48:27.641Z,19.37
2022-09-05T03:57:04.605Z,19.30
2022-09-05T03:57:26.005Z,19.21
2022-09-05T03:57:41.503Z,19.17
2022-09-05T04:00:13.036Z,19.08
2022-09-05T04:08:10.479Z,19.03
2022-09-05T04:08:28.550Z,19.13
2022-09-05T04:08:42.043Z,19.04
2022-09-05T04:11:14.708Z,18.96
2022-09-05T04:13:49.054Z,19.04
2022-09-05T04:16:20.568Z,19.11
2022-09-05T04:18:52.242Z,19.14
2022-09-05T04:21:23.156Z,19.15
2022-09-05T04:24:02.958Z,19.19
2022-09-05T04:26:49.153Z,19.20
2022-09-05T04:29:25.223Z,19.22
2022-09-05T04:32:18.379Z,19.15
2022-09-05T04:34:54.541Z,19.06
2022-09-05T04:37:47.929Z,19.06
2022-09-05T04:40:34.347Z,19.08
2022-09-05T04:43:05.154Z,19.09
2022-09-05T04:45:41.182Z,19.07
2022-09-05T04:48:12.567Z,19.01
2022-09-05T04:51:00.559Z,18.94
2022-09-05T04:53:37.383Z,18.95
2022-09-05T04:56:08.310Z,18.92
2022-09-05T04:59:18.757Z,18.91
2022-09-05T05:06:00.370Z,18.90
2022-09-05T05:06:12.238Z,18.92
2022-09-05T05:07:19.706Z,18.92
2022-09-05T05:09:56.272Z,18.95
2022-09-05T05:18:01.113Z,19.03
2022-09-05T05:18:11.478Z,19.13
2022-09-05T05:18:49.465Z,19.19
2022-09-05T05:21:27.017Z,19.23
2022-09-05T05:23:57.977Z,19.27
2022-09-05T05:26:29.125Z,19.30
2022-09-05T05:29:00.865Z,19.30
2022-09-05T05:31:33.339Z,19.30
2022-09-05T05:34:14.484Z,19.36
2022-09-05T05:37:00.233Z,19.58
2022-09-05T05:39:31.142Z,19.79
2022-09-05T05:42:17.471Z,19.93
2022-09-05T05:44:50.788Z,20.04
2022-09-05T05:47:31.567Z,20.19
2022-09-05T05:50:11.671Z,20.33
2022-09-05T05:52:45.718Z,20.44
2022-09-05T05:55:52.698Z,20.58
2022-09-05T05:58:38.741Z,20.80
2022-09-05T06:01:46.778Z,21.03
2022-09-05T06:05:04.396Z,21.20
2022-09-05T06:08:41.297Z,21.21
2022-09-05T06:14:52.723Z,21.29
2022-09-05T06:15:08.938Z,21.35
2022-09-05T06:17:52.908Z,21.26
2022-09-05T06:22:09.154Z,21.53
2022-09-05T06:24:10.344Z,21.52
2022-09-05T06:27:16.895Z,21.59
2022-09-05T06:29:55.547Z,21.55
2022-09-05T06:32:33.055Z,21.78
2022-09-05T06:35:23.629Z,22.24
2022-09-05T06:38:00.966Z,22.44
2022-09-05T06:40:35.304Z,22.51
2022-09-05T06:43:24.566Z,22.70
2022-09-05T06:46:04.323Z,22.51
2022-09-05T06:48:44.616Z,22.34
2022-09-05T06:51:37.887Z,22.91
2022-09-05T06:54:32.625Z,23.31
2022-09-05T06:57:23.764Z,23.32
2022-09-05T07:00:18.169Z,23.53
2022-09-05T07:03:03.930Z,23.62
2022-09-05T07:05:44.732Z,23.81
2022-09-05T07:08:34.123Z,23.59
2022-09-05T07:11:15.714Z,23.16
2022-09-05T07:13:55.156Z,23.58
2022-09-05T07:16:37.183Z,23.36
2022-09-05T07:19:14.364Z,23.16
2022-09-05T07:21:45.536Z,24.01
2022-09-05T07:24:54.604Z,24.59
2022-09-05T07:27:30.023Z,25.07
2022-09-05T07:30:02.338Z,25.36
2022-09-05T07:32:33.809Z,25.60
2022-09-05T07:35:04.413Z,25.86
2022-09-05T07:37:36.611Z,25.98
2022-09-05T07:40:24.689Z,26.33
2022-09-05T07:43:09.402Z,26.44
2022-09-05T07:45:56.232Z,26.66
2022-09-05T07:48:29.753Z,26.46
2022-09-05T07:56:50.755Z,26.98
2022-09-05T07:56:55.620Z,26.63
2022-09-05T07:57:20.859Z,27.28
2022-09-05T07:59:37.750Z,27.48
2022-09-05T08:02:10.941Z,27.68
2022-09-05T08:04:40.994Z,27.74
2022-09-05T08:07:48.272Z,27.70
2022-09-05T08:10:06.661Z,28.04
2022-09-05T08:13:00.593Z,27.85
2022-09-05T08:16:09.777Z,27.76
2022-09-05T08:18:24.922Z,27.65
2022-09-05T08:20:54.891Z,28.01
2022-09-05T08:23:37.675Z,28.40
2022-09-05T08:26:10.712Z,28.77
2022-09-05T08:28:43.597Z,28.69
2022-09-05T08:31:14.979Z,28.65
2022-09-05T08:33:47.238Z,28.79
2022-09-05T08:36:20.841Z,28.83
2022-09-05T08:38:51.116Z,29.27
2022-09-05T08:41:23.630Z,29.57
2022-09-05T08:46:35.742Z,29.84
2022-09-05T08:46:55.956Z,29.90
2022-09-05T08:49:46.120Z,29.37
2022-09-05T08:52:17.190Z,29.48
2022-09-05T08:54:49.245Z,29.89
2022-09-05T08:57:20.715Z,29.74
2022-09-05T09:00:19.147Z,29.70
2022-09-05T09:03:04.478Z,30.02
2022-09-05T09:06:08.524Z,29.29
2022-09-05T09:08:45.238Z,29.53
2022-09-05T09:11:15.761Z,29.89
2022-09-05T09:13:52.405Z,28.78
2022-09-05T09:16:30.554Z,29.30
2022-09-05T09:19:05.695Z,28.95
2022-09-05T09:21:42.681Z,29.45
2022-09-05T09:24:20.436Z,30.04
2022-09-05T09:26:53.996Z,29.69
2022-09-05T09:29:23.430Z,30.04
2022-09-05T09:32:01.579Z,30.10
2022-09-05T09:34:49.402Z,29.58
2022-09-05T09:37:50.701Z,30.09
2022-09-05T09:40:47.682Z,30.46
2022-09-05T09:43:30.884Z,30.88
2022-09-05T09:46:14.333Z,30.68
2022-09-05T09:48:54.794Z,30.62
2022-09-05T09:51:42.683Z,31.06
2022-09-05T09:54:27.486Z,30.71
2022-09-05T09:57:44.927Z,30.83
2022-09-05T10:00:17.699Z,31.10
2022-09-05T10:04:30.988Z,31.24
2022-09-05T10:10:35.088Z,31.44
2022-09-05T10:10:54.004Z,30.81
2022-09-05T10:12:31.871Z,31.12
2022-09-05T10:15:30.656Z,31.59
2022-09-05T10:18:29.052Z,31.56
2022-09-05T10:21:39.304Z,31.49
2022-09-05T10:24:38.419Z,31.58
2022-09-05T10:27:25.137Z,32.01
2022-09-05T10:30:10.508Z,31.84
2022-09-05T10:35:19.869Z,32.05
2022-09-05T10:35:37.505Z,32.74
2022-09-05T10:38:13.303Z,32.95
2022-09-05T10:41:19.892Z,33.20
2022-09-05T10:43:38.890Z,33.51
2022-09-05T10:46:16.959Z,33.62
2022-09-05T10:48:55.770Z,32.72
2022-09-05T10:51:32.422Z,32.58
2022-09-05T10:54:17.561Z,32.56
2022-09-05T10:56:48.377Z,32.95
2022-09-05T11:01:20.719Z,32.86
2022-09-05T11:02:29.620Z,32.71
2022-09-05T11:05:07.580Z,32.26
2022-09-05T11:07:41.771Z,31.86
2022-09-05T11:10:14.576Z,32.36
2022-09-05T11:13:14.367Z,33.05
2022-09-05T11:16:03.822Z,33.25
2022-09-05T11:18:56.901Z,33.48
2022-09-05T11:21:48.529Z,32.88
2022-09-05T11:24:32.901Z,32.66
2022-09-05T11:27:24.602Z,32.94
2022-09-05T11:29:55.732Z,32.92
2022-09-05T11:36:03.972Z,33.35
2022-09-05T11:39:55.070Z,33.16
2022-09-05T11:39:57.629Z,32.94
2022-09-05T11:42:09.061Z,33.00
2022-09-05T11:44:42.913Z,32.20
2022-09-05T11:47:44.139Z,32.67
2022-09-05T11:50:35.654Z,31.65
2022-09-05T11:53:40.899Z,32.00
2022-09-05T11:56:25.506Z,33.02
2022-09-05T11:59:14.671Z,33.45
2022-09-05T12:01:47.682Z,33.38
2022-09-05T12:04:32.585Z,33.63
2022-09-05T12:10:46.445Z,33.46
2022-09-05T12:13:51.174Z,33.21
2022-09-05T12:16:28.834Z,32.40
2022-09-05T12:19:19.065Z,32.63
2022-09-05T12:22:08.702Z,32.50
2022-09-05T12:25:24.068Z,31.38
2022-09-05T12:27:52.477Z,31.22
2022-09-05T12:30:52.218Z,31.54
2022-09-05T12:36:02.409Z,31.89
2022-09-05T12:40:57.037Z,32.60
2022-09-05T12:41:35.011Z,32.57
2022-09-05T12:42:08.241Z,33.88
2022-09-05T12:42:33.086Z,32.29
2022-09-05T12:45:11.822Z,32.16
2022-09-05T12:47:55.355Z,32.16
2022-09-05T12:50:32.353Z,32.27
2022-09-05T12:53:05.692Z,31.81
2022-09-05T12:55:37.101Z,31.66
2022-09-05T13:02:56.793Z,31.77
2022-09-05T13:03:09.381Z,32.89
2022-09-05T13:04:18.548Z,33.67
2022-09-05T13:06:51.225Z,34.15
2022-09-05T13:09:27.736Z,34.14
2022-09-05T13:14:57.661Z,33.94
2022-09-05T13:15:21.893Z,33.66
2022-09-05T13:17:55.608Z,34.09
2022-09-05T13:20:34.393Z,34.06
2022-09-05T13:23:05.890Z,33.64
2022-09-05T13:25:36.181Z,32.82
2022-09-05T13:28:08.524Z,33.31
2022-09-05T13:36:22.156Z,33.24
2022-09-05T13:38:06.457Z,33.71
2022-09-05T13:38:12.341Z,34.39
2022-09-05T13:39:28.305Z,34.48
2022-09-05T13:41:59.664Z,34.08
2022-09-05T13:44:30.128Z,33.85
2022-09-05T13:47:02.685Z,33.44
2022-09-05T13:49:55.540Z,32.93
2022-09-05T13:52:30.025Z,33.30
2022-09-05T13:55:07.386Z,33.95
2022-09-05T13:57:38.989Z,33.56
2022-09-05T14:00:40.953Z,33.22
2022-09-05T14:03:36.090Z,33.07
2022-09-05T14:06:46.382Z,32.84
2022-09-05T14:12:08.150Z,33.04
2022-09-05T14:17:51.517Z,33.05
2022-09-05T14:20:37.513Z,32.53
2022-09-05T14:23:09.288Z,31.97
2022-09-05T14:25:40.363Z,32.70
2022-09-05T14:28:14.446Z,32.96
2022-09-05T14:33:48.050Z,33.47
2022-09-05T14:37:40.436Z,33.56
2022-09-05T14:37:50.569Z,33.11
2022-09-05T14:39:45.187Z,32.74
2022-09-05T14:42:38.193Z,31.91
2022-09-05T14:45:33.282Z,31.92
2022-09-05T14:48:29.134Z,32.25
2022-09-05T14:51:25.496Z,32.51
2022-09-05T14:54:02.789Z,31.59
2022-09-05T14:57:23.745Z,32.16
2022-09-05T15:02:45.724Z,31.67
2022-09-05T15:02:50.349Z,31.59
2022-09-05T15:05:21.342Z,32.45
2022-09-05T15:07:55.317Z,32.45
2022-09-05T15:12:20.615Z,31.72
2022-09-05T15:13:25.867Z,31.60
2022-09-05T15:16:02.141Z,32.26
2022-09-05T15:18:33.052Z,32.32
2022-09-05T15:21:33.396Z,32.39
2022-09-05T15:24:13.708Z,32.70
2022-09-05T15:26:53.811Z,32.10
2022-09-05T15:29:25.214Z,31.51
2022-09-05T15:32:09.537Z,31.48
2022-09-05T15:34:39.941Z,31.45
2022-09-05T15:37:25.090Z,32.02
2022-09-05T15:40:03.792Z,32.44
2022-09-05T15:42:41.098Z,32.22
2022-09-05T15:45:12.721Z,32.01
2022-09-05T15:47:47.313Z,32.21
2022-09-05T15:50:22.662Z,31.62
2022-09-05T15:52:55.269Z,30.98
2022-09-05T15:55:26.336Z,31.06
2022-09-05T15:57:59.213Z,31.17
2022-09-05T16:00:38.973Z,31.46
2022-09-05T16:04:49.883Z,31.65
2022-09-05T16:07:42.984Z,31.46
2022-09-05T16:10:50.282Z,31.87
2022-09-05T16:14:39.592Z,30.95
2022-09-05T16:23:19.203Z,31.02
2022-09-05T16:23:28.095Z,31.19
2022-09-05T16:23:37.996Z,30.96
2022-09-05T16:25:43.940Z,31.14
2022-09-05T16:28:15.600Z,30.69
2022-09-05T16:30:47.691Z,30.87
2022-09-05T16:33:18.735Z,31.47
2022-09-05T16:35:50.392Z,31.44
2022-09-05T16:38:25.874Z,31.24
2022-09-05T16:41:12.156Z,30.63
2022-09-05T16:43:44.003Z,30.43
2022-09-05T16:46:20.850Z,30.80
2022-09-05T16:48:55.013Z,31.07
2022-09-05T16:51:35.419Z,30.91
2022-09-05T16:54:10.977Z,30.61
2022-09-05T16:56:42.091Z,30.47
2022-09-05T16:59:12.372Z,30.71
2022-09-05T17:02:05.766Z,30.92
2022-09-05T17:05:04.411Z,31.39
2022-09-05T17:07:54.585Z,31.58
2022-09-05T17:10:25.528Z,31.64
2022-09-05T17:12:55.086Z,31.60
2022-09-05T17:15:26.215Z,31.62
2022-09-05T17:18:20.091Z,31.58
2022-09-05T17:20:52.280Z,31.56
2022-09-05T17:29:20.567Z,31.39
2022-09-05T17:29:26.819Z,31.35
2022-09-05T17:29:40.658Z,31.29
2022-09-05T17:31:58.550Z,31.03
2022-09-05T17:34:58.736Z,30.91
2022-09-05T17:38:11.021Z,31.09
2022-09-05T17:41:06.861Z,31.14
2022-09-05T17:43:38.612Z,31.07
2022-09-05T17:46:17.327Z,30.98
2022-09-05T17:49:19.311Z,30.88
2022-09-05T17:52:23.663Z,30.70
2022-09-05T17:54:55.055Z,30.60
2022-09-05T17:57:41.308Z,30.51
2022-09-05T18:01:05.596Z,30.48
2022-09-05T18:04:18.116Z,30.36
2022-09-05T18:06:59.579Z,30.24
2022-09-05T18:10:14.569Z,30.13
2022-09-05T18:13:13.713Z,30.02
2022-09-05T18:16:13.277Z,29.97
2022-09-05T18:19:29.536Z,29.90
2022-09-05T18:21:49.781Z,29.83
2022-09-05T18:24:24.216Z,29.69
2022-09-05T18:26:56.045Z,29.41
2022-09-05T18:32:45.268Z,29.01
2022-09-05T18:35:37.705Z,28.99
2022-09-05T18:38:18.394Z,28.99
2022-09-05T18:41:09.273Z,28.91
2022-09-05T18:43:54.641Z,28.82
2022-09-05T18:46:40.969Z,28.81
2022-09-05T18:50:08.200Z,28.82
2022-09-05T18:52:03.052Z,28.79
2022-09-05T18:54:33.388Z,28.75
2022-09-05T18:57:27.330Z,28.74
2022-09-05T18:59:54.703Z,28.61
2022-09-05T19:02:51.225Z,28.68
2022-09-05T19:05:28.416Z,28.69
2022-09-05T19:07:59.676Z,28.65
2022-09-05T19:10:34.669Z,28.65
2022-09-05T19:13:11.600Z,28.65
2022-09-05T19:15:48.256Z,28.60
2022-09-05T19:18:26.921Z,28.42
2022-09-05T19:21:12.075Z,28.40
2022-09-05T19:23:44.982Z,28.39
2022-09-05T19:26:14.430Z,28.37
2022-09-05T19:36:51.769Z,28.32
2022-09-05T19:36:57.561Z,28.35
2022-09-05T19:37:15.602Z,28.25
2022-09-05T19:37:38.239Z,28.23
2022-09-05T19:47:29.615Z,27.88
2022-09-05T19:47:40.839Z,27.83
2022-09-05T19:47:42.436Z,27.89
2022-09-05T19:48:40.304Z,27.93
2022-09-05T19:51:18.232Z,27.96
2022-09-05T19:54:04.139Z,27.95
2022-09-05T19:56:36.167Z,27.90
2022-09-05T19:59:06.382Z,27.85
2022-09-05T20:01:35.991Z,27.79
2022-09-05T20:04:05.685Z,27.70
2022-09-05T20:06:37.784Z,27.62
2022-09-05T20:09:11.809Z,27.61
2022-09-05T20:11:46.453Z,27.62
2022-09-05T20:14:20.441Z,27.55
2022-09-05T20:16:50.432Z,27.49
2022-09-05T20:19:31.770Z,27.40
2022-09-05T20:22:47.627Z,27.37
2022-09-05T20:25:05.985Z,27.22
2022-09-05T20:27:35.586Z,27.22
2022-09-05T20:30:06.352Z,27.15
2022-09-05T20:32:40.518Z,27.10
2022-09-05T20:41:55.903Z,27.04
2022-09-05T20:43:12.303Z,27.03
2022-09-05T20:43:20.809Z,26.93
2022-09-05T20:44:22.837Z,26.86
2022-09-05T20:50:38.642Z,26.86
2022-09-05T20:54:22.168Z,26.79
2022-09-05T20:54:27.030Z,26.73
2022-09-05T20:55:38.190Z,26.70
2022-09-05T20:58:11.474Z,26.64
2022-09-05T21:01:15.509Z,26.54
2022-09-05T21:03:36.707Z,26.36
2022-09-05T21:06:19.999Z,26.32
2022-09-05T21:08:49.582Z,26.29
2022-09-05T21:11:30.327Z,26.27
2022-09-05T21:14:00.581Z,26.23
2022-09-05T21:16:31.177Z,26.24
2022-09-05T21:19:00.704Z,26.22
2022-09-05T21:21:30.921Z,26.16
2022-09-05T21:24:16.663Z,26.04
2022-09-05T21:26:53.469Z,26.02
2022-09-05T21:29:33.335Z,26.05
2022-09-05T21:32:03.972Z,26.03
2022-09-05T21:34:45.405Z,26.05
2022-09-05T21:37:15.648Z,25.96
2022-09-05T21:39:59.278Z,25.90
2022-09-05T21:47:20.352Z,25.84
2022-09-05T21:47:44.281Z,25.81
2022-09-05T21:48:15.082Z,25.76
2022-09-05T21:50:48.981Z,25.71
2022-09-05T21:56:24.187Z,25.66
2022-09-05T21:59:18.594Z,25.64
2022-09-05T21:59:25.142Z,25.61
2022-09-05T22:02:05.427Z,25.56
2022-09-05T22:04:40.058Z,25.59
2022-09-05T22:07:26.383Z,25.53
2022-09-05T22:10:03.249Z,25.51
2022-09-05T22:12:35.901Z,25.45
2022-09-05T22:15:26.534Z,25.42
2022-09-05T22:18:16.204Z,25.39
2022-09-05T22:21:01.320Z,25.35
2022-09-05T22:23:37.091Z,25.34
2022-09-05T22:26:07.895Z,25.30
2022-09-05T22:28:38.421Z,25.24
2022-09-05T22:31:10.651Z,25.19
2022-09-05T22:33:40.971Z,25.17
2022-09-05T22:36:10.808Z,25.16
2022-09-05T22:38:43.427Z,25.10
2022-09-05T22:41:13.028Z,25.06
2022-09-05T22:43:43.549Z,24.99
2022-09-05T22:46:15.606Z,24.93
2022-09-05T22:48:45.072Z,24.91
2022-09-05T22:51:16.557Z,24.88
2022-09-05T22:53:45.993Z,24.85
2022-09-05T22:56:15.480Z,24.82
2022-09-05T22:58:46.801Z,24.81
2022-09-05T23:01:18.903Z,24.78
2022-09-05T23:03:48.500Z,24.75
2022-09-05T23:06:17.968Z,24.74
2022-09-05T23:08:47.409Z,24.73
2022-09-05T23:11:18.026Z,24.67
2022-09-05T23:13:47.649Z,24.62
2022-09-05T23:16:19.700Z,24.44
2022-09-05T23:18:52.074Z,24.43
2022-09-05T23:21:21.570Z,24.27
2022-09-05T23:23:51.144Z,24.29
2022-09-05T23:26:20.592Z,24.36
2022-09-05T23:28:50.041Z,24.39
2022-09-05T23:31:22.135Z,24.39
2022-09-05T23:33:51.920Z,24.41
2022-09-05T23:36:21.345Z,24.43
2022-09-05T23:38:50.785Z,24.46
2022-09-05T23:41:20.240Z,24.48
2022-09-05T23:43:49.686Z,24.50
2022-09-05T23:46:21.724Z,24.52
2022-09-05T23:48:51.295Z,24.51
2022-09-05T23:51:20.809Z,24.49
2022-09-05T23:53:50.248Z,24.44
2022-09-05T23:56:19.725Z,24.37
2022-09-05T23:58:49.160Z,24.37
